sensor_id;sensor_type;location;lat;lon;timestamp;pressure;altitude;pressure_sealevel;temperature;humidity
52469;BME280;38381;53.688;10.776;2024-03-08T00:02:24;102180.19;;;1.31;87.38
52469;BME280;38381;53.688;10.776;2024-03-08T00:07:25;102182.72;;;1.31;86.81
52469;BME280;38381;53.688;10.776;2024-03-08T00:12:28;102183.06;;;1.35;87.13
52469;BME280;38381;53.688;10.776;2024-03-08T00:17:28;102177.03;;;1.35;86.88
52469;BME280;38381;53.688;10.776;2024-03-08T00:22:29;102179.19;;;1.29;86.62
52469;BME280;38381;53.688;10.776;2024-03-08T00:27:30;102174.56;;;1.23;87.05
52469;BME280;38381;53.688;10.776;2024-03-08T00:32:31;102177.22;;;1.25;86.48
52469;BME280;38381;53.688;10.776;2024-03-08T00:37:32;102175.91;;;1.18;87.35
52469;BME280;38381;53.688;10.776;2024-03-08T00:42:32;102182.06;;;1.08;87.52
52469;BME280;38381;53.688;10.776;2024-03-08T00:47:33;102177.88;;;1.09;88.31
52469;BME280;38381;53.688;10.776;2024-03-08T00:52:34;102169.78;;;1.03;88.41
52469;BME280;38381;53.688;10.776;2024-03-08T00:57:35;102166.59;;;0.93;88.83
52469;BME280;38381;53.688;10.776;2024-03-08T01:02:35;102154.81;;;0.95;88.71
52469;BME280;38381;53.688;10.776;2024-03-08T01:07:36;102153.06;;;0.94;88.85
52469;BME280;38381;53.688;10.776;2024-03-08T01:12:36;102143.19;;;0.87;89.22
52469;BME280;38381;53.688;10.776;2024-03-08T01:17:37;102135.94;;;0.93;88.81
52469;BME280;38381;53.688;10.776;2024-03-08T01:22:39;102124.44;;;0.87;89.76
52469;BME280;38381;53.688;10.776;2024-03-08T01:27:39;102119.63;;;0.91;89.44
52469;BME280;38381;53.688;10.776;2024-03-08T01:32:39;102116.47;;;0.82;89.49
52469;BME280;38381;53.688;10.776;2024-03-08T01:37:40;102109.47;;;0.79;90.02
52469;BME280;38381;53.688;10.776;2024-03-08T01:42:43;102097.78;;;0.70;90.32
52469;BME280;38381;53.688;10.776;2024-03-08T01:47:45;102091.88;;;0.71;90.34
52469;BME280;38381;53.688;10.776;2024-03-08T01:52:48;102083.63;;;0.75;90.16
52469;BME280;38381;53.688;10.776;2024-03-08T01:57:49;102074.25;;;0.62;90.52
52469;BME280;38381;53.688;10.776;2024-03-08T02:02:50;102069.03;;;0.60;90.34
52469;BME280;38381;53.688;10.776;2024-03-08T02:07:51;102064.50;;;0.56;90.80
52469;BME280;38381;53.688;10.776;2024-03-08T02:12:52;102061.84;;;0.55;90.91
52469;BME280;38381;53.688;10.776;2024-03-08T02:17:52;102057.13;;;0.48;92.36
52469;BME280;38381;53.688;10.776;2024-03-08T02:22:53;102054.00;;;0.52;91.95
52469;BME280;38381;53.688;10.776;2024-03-08T02:27:54;102052.22;;;0.51;91.97
52469;BME280;38381;53.688;10.776;2024-03-08T02:32:54;102048.00;;;0.51;91.78
52469;BME280;38381;53.688;10.776;2024-03-08T02:37:55;102044.09;;;0.56;90.95
52469;BME280;38381;53.688;10.776;2024-03-08T02:42:58;102034.84;;;0.45;92.16
52469;BME280;38381;53.688;10.776;2024-03-08T02:47:58;102047.53;;;0.57;90.86
52469;BME280;38381;53.688;10.776;2024-03-08T02:52:58;102048.66;;;0.49;91.03
52469;BME280;38381;53.688;10.776;2024-03-08T02:57:59;102041.53;;;0.56;91.11
52469;BME280;38381;53.688;10.776;2024-03-08T03:02:59;102044.66;;;0.52;90.07
52469;BME280;38381;53.688;10.776;2024-03-08T03:08:03;102039.78;;;0.55;89.90
52469;BME280;38381;53.688;10.776;2024-03-08T03:13:08;102041.13;;;0.50;89.60
52469;BME280;38381;53.688;10.776;2024-03-08T03:18:09;102042.84;;;0.38;90.78
52469;BME280;38381;53.688;10.776;2024-03-08T03:23:09;102047.94;;;0.38;90.19
52469;BME280;38381;53.688;10.776;2024-03-08T03:28:14;102039.69;;;0.29;89.98
52469;BME280;38381;53.688;10.776;2024-03-08T03:33:18;102048.53;;;0.34;89.86
52469;BME280;38381;53.688;10.776;2024-03-08T03:38:18;102034.91;;;0.22;89.83
52469;BME280;38381;53.688;10.776;2024-03-08T03:43:23;102041.00;;;0.24;90.24
52469;BME280;38381;53.688;10.776;2024-03-08T03:48:24;102031.66;;;0.36;90.80
52469;BME280;38381;53.688;10.776;2024-03-08T03:53:24;102036.50;;;0.08;91.32
52469;BME280;38381;53.688;10.776;2024-03-08T03:58:26;102034.59;;;0.17;91.16
52469;BME280;38381;53.688;10.776;2024-03-08T04:03:27;102040.16;;;0.11;92.50
52469;BME280;38381;53.688;10.776;2024-03-08T04:08:27;102030.63;;;0.21;91.66
52469;BME280;38381;53.688;10.776;2024-03-08T04:13:27;102023.16;;;0.24;92.03
52469;BME280;38381;53.688;10.776;2024-03-08T04:18:28;102023.59;;;0.18;92.33
52469;BME280;38381;53.688;10.776;2024-03-08T04:23:28;102022.88;;;0.07;92.02
52469;BME280;38381;53.688;10.776;2024-03-08T04:28:29;102019.59;;;-0.04;92.95
52469;BME280;38381;53.688;10.776;2024-03-08T04:33:29;102024.75;;;0.10;92.40
52469;BME280;38381;53.688;10.776;2024-03-08T04:38:30;102015.06;;;-0.08;93.08
52469;BME280;38381;53.688;10.776;2024-03-08T04:43:31;102016.63;;;-0.22;94.10
52469;BME280;38381;53.688;10.776;2024-03-08T04:48:31;102015.50;;;-0.13;93.56
52469;BME280;38381;53.688;10.776;2024-03-08T04:53:31;102012.84;;;-0.15;93.59
52469;BME280;38381;53.688;10.776;2024-03-08T04:58:35;102008.41;;;-0.17;93.91
52469;BME280;38381;53.688;10.776;2024-03-08T05:03:36;102016.94;;;-0.17;93.99
52469;BME280;38381;53.688;10.776;2024-03-08T05:08:36;102006.56;;;-0.20;93.54
52469;BME280;38381;53.688;10.776;2024-03-08T05:13:37;102009.22;;;-0.18;93.58
52469;BME280;38381;53.688;10.776;2024-03-08T05:18:37;102008.00;;;-0.24;93.78
52469;BME280;38381;53.688;10.776;2024-03-08T05:23:38;102010.97;;;-0.17;94.29
52469;BME280;38381;53.688;10.776;2024-03-08T05:28:38;102007.66;;;-0.16;93.31
52469;BME280;38381;53.688;10.776;2024-03-08T05:33:39;102002.06;;;-0.11;93.54
52469;BME280;38381;53.688;10.776;2024-03-08T05:38:39;102003.00;;;-0.10;92.83
52469;BME280;38381;53.688;10.776;2024-03-08T05:43:41;101999.03;;;-0.18;93.65
52469;BME280;38381;53.688;10.776;2024-03-08T05:48:42;101998.66;;;-0.11;93.28
52469;BME280;38381;53.688;10.776;2024-03-08T05:53:42;102003.06;;;-0.09;92.42
52469;BME280;38381;53.688;10.776;2024-03-08T05:58:43;102002.31;;;-0.08;92.72
52469;BME280;38381;53.688;10.776;2024-03-08T06:03:44;102001.47;;;-0.32;92.82
52469;BME280;38381;53.688;10.776;2024-03-08T06:08:45;102002.03;;;-0.36;93.89
52469;BME280;38381;53.688;10.776;2024-03-08T06:13:48;102009.25;;;-0.30;93.65
52469;BME280;38381;53.688;10.776;2024-03-08T06:18:50;102011.28;;;-0.13;93.85
52469;BME280;38381;53.688;10.776;2024-03-08T06:23:50;102008.66;;;-0.14;93.49
52469;BME280;38381;53.688;10.776;2024-03-08T06:28:51;102007.16;;;0.01;92.38
52469;BME280;38381;53.688;10.776;2024-03-08T06:33:52;102007.22;;;-0.23;92.79
52469;BME280;38381;53.688;10.776;2024-03-08T06:38:54;101998.66;;;-0.11;92.81
52469;BME280;38381;53.688;10.776;2024-03-08T06:43:55;101994.66;;;-0.08;93.33
52469;BME280;38381;53.688;10.776;2024-03-08T06:48:58;101993.91;;;-0.18;93.00
52469;BME280;38381;53.688;10.776;2024-03-08T06:53:58;101993.25;;;-0.28;93.87
52469;BME280;38381;53.688;10.776;2024-03-08T06:58:59;101996.56;;;-0.17;94.24
52469;BME280;38381;53.688;10.776;2024-03-08T07:03:59;101999.44;;;-0.12;93.93
52469;BME280;38381;53.688;10.776;2024-03-08T07:09:02;101996.84;;;-0.01;93.44
52469;BME280;38381;53.688;10.776;2024-03-08T07:14:03;101992.16;;;-0.31;95.00
52469;BME280;38381;53.688;10.776;2024-03-08T07:19:05;101994.94;;;-0.28;94.99
52469;BME280;38381;53.688;10.776;2024-03-08T07:24:07;101995.09;;;-0.13;95.67
52469;BME280;38381;53.688;10.776;2024-03-08T07:29:17;101983.78;;;-0.05;95.57
52469;BME280;38381;53.688;10.776;2024-03-08T07:34:17;101983.38;;;0.14;95.08
52469;BME280;38381;53.688;10.776;2024-03-08T07:39:18;101977.53;;;0.28;95.06
52469;BME280;38381;53.688;10.776;2024-03-08T07:44:19;101982.44;;;0.00;95.44
52469;BME280;38381;53.688;10.776;2024-03-08T07:49:19;101980.22;;;-0.07;94.67
52469;BME280;38381;53.688;10.776;2024-03-08T07:54:20;101981.22;;;0.20;94.51
52469;BME280;38381;53.688;10.776;2024-03-08T07:59:20;101978.03;;;0.23;95.03
52469;BME280;38381;53.688;10.776;2024-03-08T08:04:21;101982.53;;;0.52;93.67
52469;BME280;38381;53.688;10.776;2024-03-08T08:09:24;101982.41;;;0.50;94.17
52469;BME280;38381;53.688;10.776;2024-03-08T08:14:34;101979.41;;;0.56;93.48
52469;BME280;38381;53.688;10.776;2024-03-08T08:19:35;101974.81;;;0.64;93.65
52469;BME280;38381;53.688;10.776;2024-03-08T08:24:38;101977.06;;;0.72;94.35
52469;BME280;38381;53.688;10.776;2024-03-08T08:29:40;101976.69;;;0.79;93.64
52469;BME280;38381;53.688;10.776;2024-03-08T08:34:40;101973.94;;;0.90;93.46
52469;BME280;38381;53.688;10.776;2024-03-08T08:39:42;101973.66;;;1.12;93.01
52469;BME280;38381;53.688;10.776;2024-03-08T08:44:43;101968.78;;;1.15;92.70
52469;BME280;38381;53.688;10.776;2024-03-08T08:49:43;101970.13;;;1.36;92.18
52469;BME280;38381;53.688;10.776;2024-03-08T08:54:44;101956.19;;;1.73;91.59
52469;BME280;38381;53.688;10.776;2024-03-08T08:59:45;101951.81;;;1.85;90.49
52469;BME280;38381;53.688;10.776;2024-03-08T09:04:46;101947.25;;;2.22;89.92
52469;BME280;38381;53.688;10.776;2024-03-08T09:09:46;101938.09;;;2.41;88.72
52469;BME280;38381;53.688;10.776;2024-03-08T09:14:47;101936.22;;;2.53;86.91
52469;BME280;38381;53.688;10.776;2024-03-08T09:19:48;101943.03;;;2.68;86.57
52469;BME280;38381;53.688;10.776;2024-03-08T09:24:48;101929.59;;;3.01;86.97
52469;BME280;38381;53.688;10.776;2024-03-08T09:29:49;101918.63;;;3.35;85.57
52469;BME280;38381;53.688;10.776;2024-03-08T09:34:49;101911.16;;;3.71;84.67
52469;BME280;38381;53.688;10.776;2024-03-08T09:39:50;101901.97;;;3.43;82.04
52469;BME280;38381;53.688;10.776;2024-03-08T09:44:51;101893.97;;;3.87;81.65
52469;BME280;38381;53.688;10.776;2024-03-08T09:49:51;101884.19;;;3.96;79.80
52469;BME280;38381;53.688;10.776;2024-03-08T09:54:53;101882.44;;;4.29;79.16
52469;BME280;38381;53.688;10.776;2024-03-08T09:59:54;101876.31;;;4.43;77.63
52469;BME280;38381;53.688;10.776;2024-03-08T10:04:57;101865.03;;;4.76;77.59
52469;BME280;38381;53.688;10.776;2024-03-08T10:09:57;101860.03;;;4.97;77.28
52469;BME280;38381;53.688;10.776;2024-03-08T10:14:58;101851.94;;;4.89;74.45
52469;BME280;38381;53.688;10.776;2024-03-08T10:19:59;101845.00;;;5.06;74.33
52469;BME280;38381;53.688;10.776;2024-03-08T10:25:00;101833.41;;;5.53;73.51
52469;BME280;38381;53.688;10.776;2024-03-08T10:30:00;101820.03;;;5.60;72.80
52469;BME280;38381;53.688;10.776;2024-03-08T10:35:01;101811.25;;;5.96;70.77
52469;BME280;38381;53.688;10.776;2024-03-08T10:40:03;101801.97;;;5.80;66.49
52469;BME280;38381;53.688;10.776;2024-03-08T10:50:22;101795.56;;;6.11;66.63
52469;BME280;38381;53.688;10.776;2024-03-08T10:55:23;101782.69;;;6.32;66.13
52469;BME280;38381;53.688;10.776;2024-03-08T11:00:27;101780.41;;;6.39;65.47
52469;BME280;38381;53.688;10.776;2024-03-08T11:05:37;101768.31;;;6.59;65.03
52469;BME280;38381;53.688;10.776;2024-03-08T11:10:51;101756.97;;;6.77;64.73
52469;BME280;38381;53.688;10.776;2024-03-08T11:15:53;101749.81;;;6.70;63.83
52469;BME280;38381;53.688;10.776;2024-03-08T11:20:54;101735.09;;;6.90;64.67
52469;BME280;38381;53.688;10.776;2024-03-08T11:25:55;101737.66;;;6.90;62.94
52469;BME280;38381;53.688;10.776;2024-03-08T11:41:11;101708.91;;;7.03;61.62
52469;BME280;38381;53.688;10.776;2024-03-08T11:46:15;101694.72;;;6.90;60.39
52469;BME280;38381;53.688;10.776;2024-03-08T11:51:16;101691.91;;;6.84;60.05
52469;BME280;38381;53.688;10.776;2024-03-08T11:56:19;101688.34;;;7.04;57.61
52469;BME280;38381;53.688;10.776;2024-03-08T12:01:23;101678.69;;;7.23;58.50
52469;BME280;38381;53.688;10.776;2024-03-08T12:06:24;101672.66;;;7.48;58.91
52469;BME280;38381;53.688;10.776;2024-03-08T12:11:25;101664.44;;;7.60;57.54
52469;BME280;38381;53.688;10.776;2024-03-08T12:16:26;101660.25;;;7.63;57.27
52469;BME280;38381;53.688;10.776;2024-03-08T12:21:26;101649.59;;;7.53;57.20
52469;BME280;38381;53.688;10.776;2024-03-08T12:26:29;101643.31;;;7.46;57.38
52469;BME280;38381;53.688;10.776;2024-03-08T12:31:32;101626.75;;;7.65;57.20
52469;BME280;38381;53.688;10.776;2024-03-08T12:36:33;101620.03;;;7.70;57.10
52469;BME280;38381;53.688;10.776;2024-03-08T12:41:39;101611.75;;;7.80;55.64
52469;BME280;38381;53.688;10.776;2024-03-08T12:46:39;101600.13;;;7.95;55.62
52469;BME280;38381;53.688;10.776;2024-03-08T12:51:40;101599.13;;;7.90;54.35
52469;BME280;38381;53.688;10.776;2024-03-08T12:56:41;101590.28;;;7.83;56.15
52469;BME280;38381;53.688;10.776;2024-03-08T13:01:42;101579.34;;;7.90;55.98
52469;BME280;38381;53.688;10.776;2024-03-08T13:06:42;101567.91;;;8.11;55.32
52469;BME280;38381;53.688;10.776;2024-03-08T13:11:43;101558.72;;;8.22;53.60
52469;BME280;38381;53.688;10.776;2024-03-08T13:16:43;101553.94;;;8.04;53.30
52469;BME280;38381;53.688;10.776;2024-03-08T13:21:48;101548.66;;;8.01;52.21
52469;BME280;38381;53.688;10.776;2024-03-08T13:26:49;101545.38;;;8.06;52.78
52469;BME280;38381;53.688;10.776;2024-03-08T13:31:50;101539.97;;;7.99;53.88
52469;BME280;38381;53.688;10.776;2024-03-08T13:36:52;101529.38;;;8.18;54.75
52469;BME280;38381;53.688;10.776;2024-03-08T13:41:54;101528.78;;;8.29;52.76
52469;BME280;38381;53.688;10.776;2024-03-08T13:46:55;101511.13;;;8.14;52.76
52469;BME280;38381;53.688;10.776;2024-03-08T13:51:58;101505.66;;;8.03;52.30
52469;BME280;38381;53.688;10.776;2024-03-08T13:57:01;101501.63;;;8.13;52.71
52469;BME280;38381;53.688;10.776;2024-03-08T14:02:04;101494.69;;;8.12;52.90
52469;BME280;38381;53.688;10.776;2024-03-08T14:07:04;101491.13;;;8.06;52.67
52469;BME280;38381;53.688;10.776;2024-03-08T14:12:09;101478.56;;;8.19;52.76
52469;BME280;38381;53.688;10.776;2024-03-08T14:17:10;101469.25;;;8.25;52.78
52469;BME280;38381;53.688;10.776;2024-03-08T14:22:11;101454.66;;;7.96;52.29
52469;BME280;38381;53.688;10.776;2024-03-08T14:27:14;101459.94;;;8.31;52.26
52469;BME280;38381;53.688;10.776;2024-03-08T14:32:15;101459.78;;;8.24;52.29
52469;BME280;38381;53.688;10.776;2024-03-08T14:37:19;101453.16;;;8.36;51.10
52469;BME280;38381;53.688;10.776;2024-03-08T14:42:23;101435.72;;;8.27;50.59
52469;BME280;38381;53.688;10.776;2024-03-08T14:47:24;101439.81;;;8.19;51.55
52469;BME280;38381;53.688;10.776;2024-03-08T14:52:25;101439.69;;;8.16;51.25
52469;BME280;38381;53.688;10.776;2024-03-08T14:57:28;101430.34;;;8.19;50.78
52469;BME280;38381;53.688;10.776;2024-03-08T15:02:29;101421.50;;;8.11;51.39
52469;BME280;38381;53.688;10.776;2024-03-08T15:07:29;101422.31;;;8.09;51.02
52469;BME280;38381;53.688;10.776;2024-03-08T15:12:31;101409.97;;;7.98;51.61
52469;BME280;38381;53.688;10.776;2024-03-08T15:17:31;101411.22;;;8.13;51.79
52469;BME280;38381;53.688;10.776;2024-03-08T15:22:31;101398.50;;;8.20;52.07
52469;BME280;38381;53.688;10.776;2024-03-08T15:27:32;101388.03;;;8.16;51.60
52469;BME280;38381;53.688;10.776;2024-03-08T15:32:33;101391.13;;;8.02;50.36
52469;BME280;38381;53.688;10.776;2024-03-08T15:37:33;101367.03;;;8.03;50.42
52469;BME280;38381;53.688;10.776;2024-03-08T15:42:34;101368.63;;;7.98;49.96
52469;BME280;38381;53.688;10.776;2024-03-08T15:47:34;101365.94;;;7.94;49.45
52469;BME280;38381;53.688;10.776;2024-03-08T15:52:35;101358.94;;;7.90;49.03
52469;BME280;38381;53.688;10.776;2024-03-08T15:57:35;101348.63;;;7.91;48.73
52469;BME280;38381;53.688;10.776;2024-03-08T16:02:39;101351.16;;;7.88;49.27
52469;BME280;38381;53.688;10.776;2024-03-08T16:07:39;101350.06;;;7.80;53.34
52469;BME280;38381;53.688;10.776;2024-03-08T16:12:40;101358.59;;;7.77;55.93
52469;BME280;38381;53.688;10.776;2024-03-08T16:17:40;101348.19;;;7.74;56.72
52469;BME280;38381;53.688;10.776;2024-03-08T16:22:44;101333.56;;;7.75;57.52
52469;BME280;38381;53.688;10.776;2024-03-08T16:27:45;101333.38;;;7.69;57.33
52469;BME280;38381;53.688;10.776;2024-03-08T16:32:47;101325.78;;;7.73;57.73
52469;BME280;38381;53.688;10.776;2024-03-08T16:37:52;101324.72;;;7.65;57.46
52469;BME280;38381;53.688;10.776;2024-03-08T16:42:52;101325.50;;;7.32;58.08
52469;BME280;38381;53.688;10.776;2024-03-08T16:47:52;101322.22;;;7.38;58.00
52469;BME280;38381;53.688;10.776;2024-03-08T16:52:56;101322.94;;;7.34;58.22
52469;BME280;38381;53.688;10.776;2024-03-08T16:57:57;101325.50;;;7.32;58.02
52469;BME280;38381;53.688;10.776;2024-03-08T17:02:59;101327.72;;;7.20;58.47
52469;BME280;38381;53.688;10.776;2024-03-08T17:08:02;101325.78;;;7.13;59.29
52469;BME280;38381;53.688;10.776;2024-03-08T17:13:05;101323.88;;;7.05;59.00
52469;BME280;38381;53.688;10.776;2024-03-08T17:18:05;101318.91;;;6.83;59.66
52469;BME280;38381;53.688;10.776;2024-03-08T17:23:07;101316.94;;;6.76;59.64
52469;BME280;38381;53.688;10.776;2024-03-08T17:28:08;101321.66;;;6.62;60.37
52469;BME280;38381;53.688;10.776;2024-03-08T17:33:09;101314.44;;;6.50;59.65
52469;BME280;38381;53.688;10.776;2024-03-08T17:38:10;101311.56;;;6.41;60.28
52469;BME280;38381;53.688;10.776;2024-03-08T17:43:11;101311.41;;;6.36;59.64
52469;BME280;38381;53.688;10.776;2024-03-08T17:48:12;101313.13;;;6.36;58.99
52469;BME280;38381;53.688;10.776;2024-03-08T17:53:12;101299.00;;;6.24;59.18
52469;BME280;38381;53.688;10.776;2024-03-08T17:58:13;101301.50;;;6.21;58.24
52469;BME280;38381;53.688;10.776;2024-03-08T18:03:15;101303.66;;;6.09;58.63
52469;BME280;38381;53.688;10.776;2024-03-08T18:08:18;101297.41;;;6.02;58.36
52469;BME280;38381;53.688;10.776;2024-03-08T18:13:18;101293.22;;;5.80;58.57
52469;BME280;38381;53.688;10.776;2024-03-08T18:18:19;101296.44;;;5.75;59.09
52469;BME280;38381;53.688;10.776;2024-03-08T18:23:19;101293.75;;;5.72;59.13
52469;BME280;38381;53.688;10.776;2024-03-08T18:28:20;101288.56;;;5.70;58.99
52469;BME280;38381;53.688;10.776;2024-03-08T18:33:22;101298.38;;;5.56;58.50
52469;BME280;38381;53.688;10.776;2024-03-08T18:38:22;101278.59;;;5.55;58.83
52469;BME280;38381;53.688;10.776;2024-03-08T18:43:23;101291.22;;;5.48;59.48
52469;BME280;38381;53.688;10.776;2024-03-08T18:48:25;101283.00;;;5.34;59.14
52469;BME280;38381;53.688;10.776;2024-03-08T18:53:26;101279.44;;;5.30;59.83
52469;BME280;38381;53.688;10.776;2024-03-08T18:58:28;101281.00;;;5.27;60.03
52469;BME280;38381;53.688;10.776;2024-03-08T19:03:31;101273.25;;;5.25;59.53
52469;BME280;38381;53.688;10.776;2024-03-08T19:08:34;101279.91;;;5.20;59.61
52469;BME280;38381;53.688;10.776;2024-03-08T19:13:36;101262.75;;;5.19;60.30
52469;BME280;38381;53.688;10.776;2024-03-08T19:18:37;101265.84;;;5.10;59.93
52469;BME280;38381;53.688;10.776;2024-03-08T19:23:37;101267.44;;;5.07;60.02
52469;BME280;38381;53.688;10.776;2024-03-08T19:28:38;101268.16;;;5.02;59.47
52469;BME280;38381;53.688;10.776;2024-03-08T19:33:39;101277.59;;;5.03;59.99
52469;BME280;38381;53.688;10.776;2024-03-08T19:38:40;101262.66;;;4.93;60.00
52469;BME280;38381;53.688;10.776;2024-03-08T19:43:41;101264.06;;;4.85;59.84
52469;BME280;38381;53.688;10.776;2024-03-08T19:48:41;101274.47;;;4.88;59.61
52469;BME280;38381;53.688;10.776;2024-03-08T19:53:43;101266.75;;;4.88;59.71
52469;BME280;38381;53.688;10.776;2024-03-08T19:58:43;101271.66;;;4.82;60.57
52469;BME280;38381;53.688;10.776;2024-03-08T20:03:44;101258.84;;;4.83;60.42
52469;BME280;38381;53.688;10.776;2024-03-08T20:08:44;101257.28;;;4.64;60.67
52469;BME280;38381;53.688;10.776;2024-03-08T20:13:45;101264.47;;;4.73;61.14
52469;BME280;38381;53.688;10.776;2024-03-08T20:18:47;101256.53;;;4.67;61.57
52469;BME280;38381;53.688;10.776;2024-03-08T20:23:48;101253.53;;;4.56;62.21
52469;BME280;38381;53.688;10.776;2024-03-08T20:28:49;101251.13;;;4.59;62.42
52469;BME280;38381;53.688;10.776;2024-03-08T20:33:51;101246.44;;;4.49;62.20
52469;BME280;38381;53.688;10.776;2024-03-08T20:38:51;101249.63;;;4.43;62.55
52469;BME280;38381;53.688;10.776;2024-03-08T20:43:52;101247.44;;;4.32;63.93
52469;BME280;38381;53.688;10.776;2024-03-08T20:48:53;101241.31;;;4.28;63.54
52469;BME280;38381;53.688;10.776;2024-03-08T20:53:53;101236.81;;;4.22;63.58
52469;BME280;38381;53.688;10.776;2024-03-08T20:58:55;101230.63;;;4.17;64.32
52469;BME280;38381;53.688;10.776;2024-03-08T21:03:58;101234.31;;;4.03;64.25
52469;BME280;38381;53.688;10.776;2024-03-08T21:08:59;101227.13;;;3.94;64.66
52469;BME280;38381;53.688;10.776;2024-03-08T21:14:00;101218.84;;;3.80;65.18
52469;BME280;38381;53.688;10.776;2024-03-08T21:19:00;101215.28;;;3.77;65.76
52469;BME280;38381;53.688;10.776;2024-03-08T21:24:01;101206.41;;;3.69;66.12
52469;BME280;38381;53.688;10.776;2024-03-08T21:29:02;101195.69;;;3.58;66.27
52469;BME280;38381;53.688;10.776;2024-03-08T21:34:03;101188.84;;;3.57;66.76
52469;BME280;38381;53.688;10.776;2024-03-08T21:39:05;101183.38;;;3.49;67.23
52469;BME280;38381;53.688;10.776;2024-03-08T21:44:11;101174.06;;;3.51;67.44
52469;BME280;38381;53.688;10.776;2024-03-08T21:49:11;101177.66;;;3.35;67.98
52469;BME280;38381;53.688;10.776;2024-03-08T21:54:12;101165.94;;;3.40;67.81
52469;BME280;38381;53.688;10.776;2024-03-08T21:59:13;101162.09;;;3.31;68.49
52469;BME280;38381;53.688;10.776;2024-03-08T22:04:13;101159.47;;;3.29;68.16
52469;BME280;38381;53.688;10.776;2024-03-08T22:09:14;101150.28;;;3.34;68.68
52469;BME280;38381;53.688;10.776;2024-03-08T22:14:15;101141.44;;;3.28;69.29
52469;BME280;38381;53.688;10.776;2024-03-08T22:19:19;101139.72;;;3.27;68.82
52469;BME280;38381;53.688;10.776;2024-03-08T22:24:20;101139.97;;;3.33;68.87
52469;BME280;38381;53.688;10.776;2024-03-08T22:29:20;101131.41;;;3.32;68.98
52469;BME280;38381;53.688;10.776;2024-03-08T22:34:20;101124.25;;;3.25;69.30
52469;BME280;38381;53.688;10.776;2024-03-08T22:39:21;101124.19;;;3.23;69.12
52469;BME280;38381;53.688;10.776;2024-03-08T22:44:23;101124.13;;;3.22;69.09
52469;BME280;38381;53.688;10.776;2024-03-08T22:49:24;101111.06;;;3.16;69.11
52469;BME280;38381;53.688;10.776;2024-03-08T22:54:26;101112.53;;;3.11;69.08
52469;BME280;38381;53.688;10.776;2024-03-08T22:59:26;101105.25;;;3.20;68.92
52469;BME280;38381;53.688;10.776;2024-03-08T23:04:28;101102.69;;;3.20;68.72
52469;BME280;38381;53.688;10.776;2024-03-08T23:09:28;101107.94;;;3.23;68.81
52469;BME280;38381;53.688;10.776;2024-03-08T23:14:28;101106.75;;;3.15;68.55
52469;BME280;38381;53.688;10.776;2024-03-08T23:19:29;101099.91;;;3.15;68.50
52469;BME280;38381;53.688;10.776;2024-03-08T23:24:30;101091.38;;;3.15;68.02
52469;BME280;38381;53.688;10.776;2024-03-08T23:29:31;101089.63;;;3.14;67.92
52469;BME280;38381;53.688;10.776;2024-03-08T23:34:32;101084.03;;;3.03;68.22
52469;BME280;38381;53.688;10.776;2024-03-08T23:39:32;101083.22;;;3.04;68.01
52469;BME280;38381;53.688;10.776;2024-03-08T23:44:32;101079.91;;;3.07;68.52
52469;BME280;38381;53.688;10.776;2024-03-08T23:49:33;101079.81;;;3.04;67.92
52469;BME280;38381;53.688;10.776;2024-03-08T23:54:33;101073.41;;;2.94;68.25
52469;BME280;38381;53.688;10.776;2024-03-08T23:59:34;101070.78;;;2.92;68.36
